sensor_id;sensor_type;location;lat;lon;timestamp;temperature;humidity
34768;DHT22;21755;43.608;1.236;2023-02-18T00:01:15;5.50;99.90
34768;DHT22;21755;43.608;1.236;2023-02-18T00:03:42;5.20;99.90
34768;DHT22;21755;43.608;1.236;2023-02-18T00:06:13;5.10;99.90
34768;DHT22;21755;43.608;1.236;2023-02-18T00:08:41;5.10;99.90
34768;DHT22;21755;43.608;1.236;2023-02-18T00:11:07;5.20;99.90
34768;DHT22;21755;43.608;1.236;2023-02-18T00:13:34;5.20;99.90
34768;DHT22;21755;43.608;1.236;2023-02-18T00:16:05;5.20;99.90
34768;DHT22;21755;43.608;1.236;2023-02-18T00:18:31;5.20;99.90
34768;DHT22;21755;43.608;1.236;2023-02-18T00:20:57;5.20;99.90
34768;DHT22;21755;43.608;1.236;2023-02-18T00:23:23;5.20;99.90
34768;DHT22;21755;43.608;1.236;2023-02-18T00:25:49;5.20;99.90
34768;DHT22;21755;43.608;1.236;2023-02-18T00:28:15;5.20;99.90
34768;DHT22;21755;43.608;1.236;2023-02-18T00:30:42;5.10;99.90
34768;DHT22;21755;43.608;1.236;2023-02-18T00:33:08;5.10;99.90
34768;DHT22;21755;43.608;1.236;2023-02-18T00:35:34;5.00;99.90
34768;DHT22;21755;43.608;1.236;2023-02-18T00:38:00;4.80;99.90
34768;DHT22;21755;43.608;1.236;2023-02-18T00:40:26;4.80;99.90
34768;DHT22;21755;43.608;1.236;2023-02-18T00:42:52;4.80;99.90
34768;DHT22;21755;43.608;1.236;2023-02-18T00:45:18;4.80;99.90
34768;DHT22;21755;43.608;1.236;2023-02-18T00:47:43;4.90;99.90
34768;DHT22;21755;43.608;1.236;2023-02-18T00:50:10;4.90;99.90
34768;DHT22;21755;43.608;1.236;2023-02-18T00:52:36;4.90;99.90
34768;DHT22;21755;43.608;1.236;2023-02-18T00:55:02;4.90;99.90
34768;DHT22;21755;43.608;1.236;2023-02-18T00:57:28;4.90;99.90
34768;DHT22;21755;43.608;1.236;2023-02-18T00:59:54;4.80;99.90
34768;DHT22;21755;43.608;1.236;2023-02-18T01:02:20;4.80;99.90
34768;DHT22;21755;43.608;1.236;2023-02-18T01:04:46;4.80;99.90
34768;DHT22;21755;43.608;1.236;2023-02-18T01:07:12;4.70;99.90
34768;DHT22;21755;43.608;1.236;2023-02-18T01:09:38;4.70;99.90
34768;DHT22;21755;43.608;1.236;2023-02-18T01:12:04;4.70;99.90
34768;DHT22;21755;43.608;1.236;2023-02-18T01:14:30;4.70;99.90
34768;DHT22;21755;43.608;1.236;2023-02-18T01:16:56;4.70;99.90
34768;DHT22;21755;43.608;1.236;2023-02-18T01:19:22;4.70;99.90
34768;DHT22;21755;43.608;1.236;2023-02-18T01:21:48;4.60;99.90
34768;DHT22;21755;43.608;1.236;2023-02-18T01:24:14;4.50;99.90
34768;DHT22;21755;43.608;1.236;2023-02-18T01:26:39;4.50;99.90
34768;DHT22;21755;43.608;1.236;2023-02-18T01:29:05;4.50;99.90
34768;DHT22;21755;43.608;1.236;2023-02-18T01:31:31;4.60;99.90
34768;DHT22;21755;43.608;1.236;2023-02-18T01:33:57;4.60;99.90
34768;DHT22;21755;43.608;1.236;2023-02-18T01:36:23;4.50;99.90
34768;DHT22;21755;43.608;1.236;2023-02-18T01:38:49;4.40;99.90
34768;DHT22;21755;43.608;1.236;2023-02-18T01:41:15;4.40;99.90
34768;DHT22;21755;43.608;1.236;2023-02-18T01:43:41;4.40;99.90
34768;DHT22;21755;43.608;1.236;2023-02-18T01:46:25;4.40;99.90
34768;DHT22;21755;43.608;1.236;2023-02-18T01:48:55;4.30;99.90
34768;DHT22;21755;43.608;1.236;2023-02-18T01:51:29;4.40;99.90
34768;DHT22;21755;43.608;1.236;2023-02-18T01:54:07;4.40;99.90
34768;DHT22;21755;43.608;1.236;2023-02-18T01:56:40;4.50;99.90
34768;DHT22;21755;43.608;1.236;2023-02-18T01:59:12;4.30;99.90
34768;DHT22;21755;43.608;1.236;2023-02-18T02:01:41;4.30;99.90
34768;DHT22;21755;43.608;1.236;2023-02-18T02:04:08;4.20;99.90
34768;DHT22;21755;43.608;1.236;2023-02-18T02:06:34;4.20;99.90
34768;DHT22;21755;43.608;1.236;2023-02-18T02:09:02;4.20;99.90
34768;DHT22;21755;43.608;1.236;2023-02-18T02:11:46;4.20;99.90
34768;DHT22;21755;43.608;1.236;2023-02-18T02:19:59;4.10;99.90
34768;DHT22;21755;43.608;1.236;2023-02-18T02:28:30;4.30;99.90
34768;DHT22;21755;43.608;1.236;2023-02-18T02:42:35;4.10;99.90
34768;DHT22;21755;43.608;1.236;2023-02-18T02:45:20;4.00;99.90
34768;DHT22;21755;43.608;1.236;2023-02-18T02:47:53;4.00;99.90
34768;DHT22;21755;43.608;1.236;2023-02-18T02:53:05;3.90;99.90
34768;DHT22;21755;43.608;1.236;2023-02-18T02:55:36;3.90;99.90
34768;DHT22;21755;43.608;1.236;2023-02-18T02:58:02;3.90;99.90
34768;DHT22;21755;43.608;1.236;2023-02-18T03:03:55;3.90;99.90
34768;DHT22;21755;43.608;1.236;2023-02-18T03:12:11;3.80;99.90
34768;DHT22;21755;43.608;1.236;2023-02-18T03:14:48;3.80;99.90
34768;DHT22;21755;43.608;1.236;2023-02-18T03:17:24;3.70;99.90
34768;DHT22;21755;43.608;1.236;2023-02-18T03:20:00;3.60;99.90
34768;DHT22;21755;43.608;1.236;2023-02-18T03:22:35;3.60;99.90
34768;DHT22;21755;43.608;1.236;2023-02-18T03:25:04;3.60;99.90
34768;DHT22;21755;43.608;1.236;2023-02-18T03:27:35;3.50;99.90
34768;DHT22;21755;43.608;1.236;2023-02-18T03:30:13;3.60;99.90
34768;DHT22;21755;43.608;1.236;2023-02-18T03:32:41;3.70;99.90
34768;DHT22;21755;43.608;1.236;2023-02-18T03:35:17;3.70;99.90
34768;DHT22;21755;43.608;1.236;2023-02-18T03:38:08;3.70;99.90
34768;DHT22;21755;43.608;1.236;2023-02-18T03:40:38;3.60;99.90
34768;DHT22;21755;43.608;1.236;2023-02-18T03:43:04;3.70;99.90
34768;DHT22;21755;43.608;1.236;2023-02-18T03:45:30;3.70;99.90
34768;DHT22;21755;43.608;1.236;2023-02-18T03:47:56;3.70;99.90
34768;DHT22;21755;43.608;1.236;2023-02-18T03:50:23;3.70;99.90
34768;DHT22;21755;43.608;1.236;2023-02-18T03:52:49;3.60;99.90
34768;DHT22;21755;43.608;1.236;2023-02-18T03:55:15;3.50;99.90
34768;DHT22;21755;43.608;1.236;2023-02-18T03:57:41;3.40;99.90
34768;DHT22;21755;43.608;1.236;2023-02-18T04:00:09;3.30;99.90
34768;DHT22;21755;43.608;1.236;2023-02-18T04:02:36;3.30;99.90
34768;DHT22;21755;43.608;1.236;2023-02-18T04:05:02;3.40;99.90
34768;DHT22;21755;43.608;1.236;2023-02-18T04:07:28;3.40;99.90
34768;DHT22;21755;43.608;1.236;2023-02-18T04:09:54;3.50;99.90
34768;DHT22;21755;43.608;1.236;2023-02-18T04:12:20;3.40;99.90
34768;DHT22;21755;43.608;1.236;2023-02-18T04:14:46;3.30;99.90
34768;DHT22;21755;43.608;1.236;2023-02-18T04:17:11;3.20;99.90
34768;DHT22;21755;43.608;1.236;2023-02-18T04:19:37;3.20;99.90
34768;DHT22;21755;43.608;1.236;2023-02-18T04:22:03;3.20;99.90
34768;DHT22;21755;43.608;1.236;2023-02-18T04:24:29;3.20;99.90
34768;DHT22;21755;43.608;1.236;2023-02-18T04:26:55;3.20;99.90
34768;DHT22;21755;43.608;1.236;2023-02-18T04:29:21;3.20;99.90
34768;DHT22;21755;43.608;1.236;2023-02-18T04:31:47;3.20;99.90
34768;DHT22;21755;43.608;1.236;2023-02-18T04:34:13;3.20;99.90
34768;DHT22;21755;43.608;1.236;2023-02-18T04:36:39;3.30;99.90
34768;DHT22;21755;43.608;1.236;2023-02-18T04:39:05;3.40;99.90
34768;DHT22;21755;43.608;1.236;2023-02-18T04:41:30;3.30;99.90
34768;DHT22;21755;43.608;1.236;2023-02-18T04:43:56;3.20;99.90
34768;DHT22;21755;43.608;1.236;2023-02-18T04:46:24;3.20;99.90
34768;DHT22;21755;43.608;1.236;2023-02-18T04:48:50;3.20;99.90
34768;DHT22;21755;43.608;1.236;2023-02-18T04:51:16;3.10;99.90
34768;DHT22;21755;43.608;1.236;2023-02-18T04:53:41;3.10;99.90
34768;DHT22;21755;43.608;1.236;2023-02-18T04:56:07;3.00;99.90
34768;DHT22;21755;43.608;1.236;2023-02-18T04:58:33;3.10;99.90
34768;DHT22;21755;43.608;1.236;2023-02-18T05:01:00;3.20;99.90
34768;DHT22;21755;43.608;1.236;2023-02-18T05:03:27;3.00;99.90
34768;DHT22;21755;43.608;1.236;2023-02-18T05:05:53;2.90;99.90
34768;DHT22;21755;43.608;1.236;2023-02-18T05:08:19;2.90;99.90
34768;DHT22;21755;43.608;1.236;2023-02-18T05:10:45;2.90;99.90
34768;DHT22;21755;43.608;1.236;2023-02-18T05:13:11;2.90;99.90
34768;DHT22;21755;43.608;1.236;2023-02-18T05:15:37;3.00;99.90
34768;DHT22;21755;43.608;1.236;2023-02-18T05:18:03;2.90;99.90
34768;DHT22;21755;43.608;1.236;2023-02-18T05:20:29;3.00;99.90
34768;DHT22;21755;43.608;1.236;2023-02-18T05:22:55;2.90;99.90
34768;DHT22;21755;43.608;1.236;2023-02-18T05:25:21;2.90;99.90
34768;DHT22;21755;43.608;1.236;2023-02-18T05:27:47;2.90;99.90
34768;DHT22;21755;43.608;1.236;2023-02-18T05:30:13;3.00;99.90
34768;DHT22;21755;43.608;1.236;2023-02-18T05:32:39;3.00;99.90
34768;DHT22;21755;43.608;1.236;2023-02-18T05:35:05;2.90;99.90
34768;DHT22;21755;43.608;1.236;2023-02-18T05:37:32;2.90;99.90
34768;DHT22;21755;43.608;1.236;2023-02-18T05:39:58;2.90;99.90
34768;DHT22;21755;43.608;1.236;2023-02-18T05:42:23;2.90;99.90
34768;DHT22;21755;43.608;1.236;2023-02-18T05:44:49;2.90;99.90
34768;DHT22;21755;43.608;1.236;2023-02-18T05:47:15;2.90;99.90
34768;DHT22;21755;43.608;1.236;2023-02-18T05:49:41;2.90;99.90
34768;DHT22;21755;43.608;1.236;2023-02-18T05:52:08;2.90;99.90
34768;DHT22;21755;43.608;1.236;2023-02-18T05:54:35;2.90;99.90
34768;DHT22;21755;43.608;1.236;2023-02-18T05:57:02;2.90;99.90
34768;DHT22;21755;43.608;1.236;2023-02-18T05:59:28;2.90;99.90
34768;DHT22;21755;43.608;1.236;2023-02-18T06:01:54;2.90;99.90
34768;DHT22;21755;43.608;1.236;2023-02-18T06:04:21;2.90;99.90
34768;DHT22;21755;43.608;1.236;2023-02-18T06:06:47;2.90;99.90
34768;DHT22;21755;43.608;1.236;2023-02-18T06:09:13;2.90;99.90
34768;DHT22;21755;43.608;1.236;2023-02-18T06:11:39;2.90;99.90
34768;DHT22;21755;43.608;1.236;2023-02-18T06:14:06;2.80;99.90
34768;DHT22;21755;43.608;1.236;2023-02-18T06:16:32;2.80;99.90
34768;DHT22;21755;43.608;1.236;2023-02-18T06:18:58;2.70;99.90
34768;DHT22;21755;43.608;1.236;2023-02-18T06:21:24;2.70;99.90
34768;DHT22;21755;43.608;1.236;2023-02-18T06:23:50;2.60;99.90
34768;DHT22;21755;43.608;1.236;2023-02-18T06:26:16;2.60;99.90
34768;DHT22;21755;43.608;1.236;2023-02-18T06:28:42;2.60;99.90
34768;DHT22;21755;43.608;1.236;2023-02-18T06:31:08;2.60;99.90
34768;DHT22;21755;43.608;1.236;2023-02-18T06:33:34;2.60;99.90
34768;DHT22;21755;43.608;1.236;2023-02-18T06:36:03;2.50;99.90
34768;DHT22;21755;43.608;1.236;2023-02-18T06:38:36;2.60;99.90
34768;DHT22;21755;43.608;1.236;2023-02-18T06:41:03;2.60;99.90
34768;DHT22;21755;43.608;1.236;2023-02-18T06:43:29;2.60;99.90
34768;DHT22;21755;43.608;1.236;2023-02-18T06:45:55;2.50;99.90
34768;DHT22;21755;43.608;1.236;2023-02-18T06:48:21;2.50;99.90
34768;DHT22;21755;43.608;1.236;2023-02-18T06:50:48;2.60;99.90
34768;DHT22;21755;43.608;1.236;2023-02-18T06:53:14;2.60;99.90
34768;DHT22;21755;43.608;1.236;2023-02-18T06:55:42;2.60;99.90
34768;DHT22;21755;43.608;1.236;2023-02-18T06:58:09;2.60;99.90
34768;DHT22;21755;43.608;1.236;2023-02-18T07:00:35;2.60;99.90
34768;DHT22;21755;43.608;1.236;2023-02-18T07:03:01;2.60;99.90
34768;DHT22;21755;43.608;1.236;2023-02-18T07:05:28;2.60;99.90
34768;DHT22;21755;43.608;1.236;2023-02-18T07:07:54;2.50;99.90
34768;DHT22;21755;43.608;1.236;2023-02-18T07:10:20;2.60;99.90
34768;DHT22;21755;43.608;1.236;2023-02-18T07:12:46;2.50;99.90
34768;DHT22;21755;43.608;1.236;2023-02-18T07:15:12;2.70;99.90
34768;DHT22;21755;43.608;1.236;2023-02-18T07:17:38;2.60;99.90
34768;DHT22;21755;43.608;1.236;2023-02-18T07:20:05;2.70;99.90
34768;DHT22;21755;43.608;1.236;2023-02-18T07:22:31;2.70;99.90
34768;DHT22;21755;43.608;1.236;2023-02-18T07:24:57;2.70;99.90
34768;DHT22;21755;43.608;1.236;2023-02-18T07:27:23;2.70;99.90
34768;DHT22;21755;43.608;1.236;2023-02-18T07:29:49;2.70;99.90
34768;DHT22;21755;43.608;1.236;2023-02-18T07:32:17;2.70;99.90
34768;DHT22;21755;43.608;1.236;2023-02-18T07:34:43;2.80;99.90
34768;DHT22;21755;43.608;1.236;2023-02-18T07:37:09;2.80;99.90
34768;DHT22;21755;43.608;1.236;2023-02-18T07:39:41;2.90;99.90
34768;DHT22;21755;43.608;1.236;2023-02-18T07:42:08;2.90;99.90
34768;DHT22;21755;43.608;1.236;2023-02-18T07:44:34;3.00;99.90
34768;DHT22;21755;43.608;1.236;2023-02-18T07:47:02;3.10;99.90
34768;DHT22;21755;43.608;1.236;2023-02-18T07:49:28;3.10;99.90
34768;DHT22;21755;43.608;1.236;2023-02-18T07:51:54;3.20;99.90
34768;DHT22;21755;43.608;1.236;2023-02-18T07:54:20;3.40;99.90
34768;DHT22;21755;43.608;1.236;2023-02-18T07:56:46;3.50;99.90
34768;DHT22;21755;43.608;1.236;2023-02-18T07:59:12;3.50;99.90
34768;DHT22;21755;43.608;1.236;2023-02-18T08:01:39;3.60;99.90
34768;DHT22;21755;43.608;1.236;2023-02-18T08:04:06;3.70;99.90
34768;DHT22;21755;43.608;1.236;2023-02-18T08:06:43;3.70;99.90
34768;DHT22;21755;43.608;1.236;2023-02-18T08:09:11;3.80;99.90
34768;DHT22;21755;43.608;1.236;2023-02-18T08:11:37;3.90;99.90
34768;DHT22;21755;43.608;1.236;2023-02-18T08:14:03;4.10;99.90
34768;DHT22;21755;43.608;1.236;2023-02-18T08:16:29;4.20;99.90
34768;DHT22;21755;43.608;1.236;2023-02-18T08:18:55;4.20;99.90
34768;DHT22;21755;43.608;1.236;2023-02-18T08:21:23;4.40;99.90
34768;DHT22;21755;43.608;1.236;2023-02-18T08:23:49;4.50;99.90
34768;DHT22;21755;43.608;1.236;2023-02-18T08:26:16;4.60;99.90
34768;DHT22;21755;43.608;1.236;2023-02-18T08:28:43;4.70;99.90
34768;DHT22;21755;43.608;1.236;2023-02-18T08:31:25;4.70;99.90
34768;DHT22;21755;43.608;1.236;2023-02-18T08:33:52;4.80;99.90
34768;DHT22;21755;43.608;1.236;2023-02-18T08:36:19;5.00;99.90
34768;DHT22;21755;43.608;1.236;2023-02-18T08:38:45;5.10;99.90
34768;DHT22;21755;43.608;1.236;2023-02-18T08:41:11;5.20;99.90
34768;DHT22;21755;43.608;1.236;2023-02-18T08:43:39;5.30;99.90
34768;DHT22;21755;43.608;1.236;2023-02-18T08:46:05;5.50;99.90
34768;DHT22;21755;43.608;1.236;2023-02-18T08:48:31;5.60;99.90
34768;DHT22;21755;43.608;1.236;2023-02-18T08:50:58;5.70;99.90
34768;DHT22;21755;43.608;1.236;2023-02-18T08:53:24;5.90;99.90
34768;DHT22;21755;43.608;1.236;2023-02-18T08:55:50;6.00;99.90
34768;DHT22;21755;43.608;1.236;2023-02-18T08:58:16;6.10;99.90
34768;DHT22;21755;43.608;1.236;2023-02-18T09:00:42;6.20;99.90
34768;DHT22;21755;43.608;1.236;2023-02-18T09:03:12;6.30;99.90
34768;DHT22;21755;43.608;1.236;2023-02-18T09:05:39;6.50;99.90
34768;DHT22;21755;43.608;1.236;2023-02-18T09:08:05;6.60;99.90
34768;DHT22;21755;43.608;1.236;2023-02-18T09:10:31;6.70;99.90
34768;DHT22;21755;43.608;1.236;2023-02-18T09:12:57;6.80;99.90
34768;DHT22;21755;43.608;1.236;2023-02-18T09:15:23;7.00;99.90
34768;DHT22;21755;43.608;1.236;2023-02-18T09:17:49;7.10;99.90
34768;DHT22;21755;43.608;1.236;2023-02-18T09:20:15;7.30;99.90
34768;DHT22;21755;43.608;1.236;2023-02-18T09:22:41;7.50;99.90
34768;DHT22;21755;43.608;1.236;2023-02-18T09:25:07;7.60;99.90
34768;DHT22;21755;43.608;1.236;2023-02-18T09:27:33;7.70;99.90
34768;DHT22;21755;43.608;1.236;2023-02-18T09:29:59;7.90;99.90
34768;DHT22;21755;43.608;1.236;2023-02-18T09:32:24;8.00;99.90
34768;DHT22;21755;43.608;1.236;2023-02-18T09:34:50;8.10;99.90
34768;DHT22;21755;43.608;1.236;2023-02-18T09:37:16;8.30;99.90
34768;DHT22;21755;43.608;1.236;2023-02-18T09:39:42;8.40;99.90
34768;DHT22;21755;43.608;1.236;2023-02-18T09:42:13;8.60;99.90
34768;DHT22;21755;43.608;1.236;2023-02-18T09:44:52;8.80;99.90
34768;DHT22;21755;43.608;1.236;2023-02-18T09:47:37;8.90;99.90
34768;DHT22;21755;43.608;1.236;2023-02-18T09:50:07;9.10;99.90
34768;DHT22;21755;43.608;1.236;2023-02-18T09:52:37;9.20;99.90
34768;DHT22;21755;43.608;1.236;2023-02-18T09:57:50;9.50;99.90
34768;DHT22;21755;43.608;1.236;2023-02-18T10:00:33;9.70;99.90
34768;DHT22;21755;43.608;1.236;2023-02-18T10:03:14;9.80;99.90
34768;DHT22;21755;43.608;1.236;2023-02-18T10:08:37;10.00;99.90
34768;DHT22;21755;43.608;1.236;2023-02-18T10:11:12;10.10;99.90
34768;DHT22;21755;43.608;1.236;2023-02-18T10:13:42;10.30;99.90
34768;DHT22;21755;43.608;1.236;2023-02-18T10:16:09;10.50;99.90
34768;DHT22;21755;43.608;1.236;2023-02-18T10:18:43;10.60;99.90
34768;DHT22;21755;43.608;1.236;2023-02-18T10:21:13;10.70;99.90
34768;DHT22;21755;43.608;1.236;2023-02-18T10:23:45;10.80;99.90
34768;DHT22;21755;43.608;1.236;2023-02-18T10:26:15;10.90;99.90
34768;DHT22;21755;43.608;1.236;2023-02-18T10:28:43;11.00;99.90
34768;DHT22;21755;43.608;1.236;2023-02-18T10:31:24;11.20;99.90
34768;DHT22;21755;43.608;1.236;2023-02-18T10:40:00;11.50;99.90
34768;DHT22;21755;43.608;1.236;2023-02-18T10:45:27;11.70;99.90
34768;DHT22;21755;43.608;1.236;2023-02-18T10:52:56;12.10;99.90
34768;DHT22;21755;43.608;1.236;2023-02-18T10:55:53;12.20;99.90
34768;DHT22;21755;43.608;1.236;2023-02-18T10:58:45;12.50;99.90
34768;DHT22;21755;43.608;1.236;2023-02-18T11:01:21;12.70;99.90
34768;DHT22;21755;43.608;1.236;2023-02-18T11:03:52;12.70;99.90
34768;DHT22;21755;43.608;1.236;2023-02-18T11:06:38;12.80;99.90
34768;DHT22;21755;43.608;1.236;2023-02-18T11:09:05;12.90;99.90
34768;DHT22;21755;43.608;1.236;2023-02-18T11:11:35;13.00;99.90
34768;DHT22;21755;43.608;1.236;2023-02-18T11:14:03;13.10;99.90
34768;DHT22;21755;43.608;1.236;2023-02-18T11:19:32;13.40;99.90
34768;DHT22;21755;43.608;1.236;2023-02-18T11:22:18;13.40;99.90
34768;DHT22;21755;43.608;1.236;2023-02-18T11:24:45;13.60;99.90
34768;DHT22;21755;43.608;1.236;2023-02-18T11:29:52;13.70;99.90
34768;DHT22;21755;43.608;1.236;2023-02-18T11:32:19;13.70;99.90
34768;DHT22;21755;43.608;1.236;2023-02-18T11:34:45;13.90;99.90
34768;DHT22;21755;43.608;1.236;2023-02-18T11:37:19;14.00;99.90
34768;DHT22;21755;43.608;1.236;2023-02-18T11:39:48;14.10;99.90
34768;DHT22;21755;43.608;1.236;2023-02-18T11:42:17;14.30;99.90
34768;DHT22;21755;43.608;1.236;2023-02-18T11:44:56;14.40;99.90
34768;DHT22;21755;43.608;1.236;2023-02-18T11:47:31;14.50;99.90
34768;DHT22;21755;43.608;1.236;2023-02-18T11:50:02;14.50;99.90
34768;DHT22;21755;43.608;1.236;2023-02-18T11:52:35;14.70;99.90
34768;DHT22;21755;43.608;1.236;2023-02-18T11:57:27;14.80;99.90
34768;DHT22;21755;43.608;1.236;2023-02-18T11:59:54;14.90;99.90
34768;DHT22;21755;43.608;1.236;2023-02-18T12:02:36;14.90;99.90
34768;DHT22;21755;43.608;1.236;2023-02-18T12:07:52;15.10;99.90
34768;DHT22;21755;43.608;1.236;2023-02-18T12:10:33;15.20;99.90
34768;DHT22;21755;43.608;1.236;2023-02-18T12:18:23;15.40;99.90
34768;DHT22;21755;43.608;1.236;2023-02-18T12:29:51;15.70;99.90
34768;DHT22;21755;43.608;1.236;2023-02-18T12:32:09;15.90;99.90
34768;DHT22;21755;43.608;1.236;2023-02-18T12:40:01;16.00;99.90
34768;DHT22;21755;43.608;1.236;2023-02-18T13:07:59;16.40;99.90
34768;DHT22;21755;43.608;1.236;2023-02-18T13:13:19;16.30;99.90
34768;DHT22;21755;43.608;1.236;2023-02-18T13:16:05;16.40;99.90
34768;DHT22;21755;43.608;1.236;2023-02-18T13:21:13;16.60;99.90
34768;DHT22;21755;43.608;1.236;2023-02-18T13:26:15;16.60;99.90
34768;DHT22;21755;43.608;1.236;2023-02-18T13:28:48;16.70;99.90
34768;DHT22;21755;43.608;1.236;2023-02-18T13:34:38;16.80;99.90
34768;DHT22;21755;43.608;1.236;2023-02-18T13:37:20;16.80;99.90
34768;DHT22;21755;43.608;1.236;2023-02-18T13:39:52;16.80;99.90
34768;DHT22;21755;43.608;1.236;2023-02-18T13:47:42;16.80;99.90
34768;DHT22;21755;43.608;1.236;2023-02-18T13:50:20;16.90;99.90
34768;DHT22;21755;43.608;1.236;2023-02-18T13:58:25;17.10;99.90
34768;DHT22;21755;43.608;1.236;2023-02-18T14:01:13;17.10;99.90
34768;DHT22;21755;43.608;1.236;2023-02-18T14:06:28;17.00;99.90
34768;DHT22;21755;43.608;1.236;2023-02-18T14:14:32;17.00;99.90
34768;DHT22;21755;43.608;1.236;2023-02-18T14:22:32;17.20;99.90
34768;DHT22;21755;43.608;1.236;2023-02-18T14:27:27;17.20;99.90
34768;DHT22;21755;43.608;1.236;2023-02-18T14:29:53;17.10;99.90
34768;DHT22;21755;43.608;1.236;2023-02-18T14:32:20;17.00;99.90
34768;DHT22;21755;43.608;1.236;2023-02-18T14:35:14;17.10;99.90
34768;DHT22;21755;43.608;1.236;2023-02-18T14:48:41;17.30;99.90
34768;DHT22;21755;43.608;1.236;2023-02-18T14:51:08;17.30;99.90
34768;DHT22;21755;43.608;1.236;2023-02-18T14:53:41;17.30;99.90
34768;DHT22;21755;43.608;1.236;2023-02-18T14:56:09;17.30;99.90
34768;DHT22;21755;43.608;1.236;2023-02-18T14:58:40;17.30;99.90
34768;DHT22;21755;43.608;1.236;2023-02-18T15:01:27;17.30;99.90
34768;DHT22;21755;43.608;1.236;2023-02-18T15:03:54;17.30;99.90
34768;DHT22;21755;43.608;1.236;2023-02-18T15:06:22;17.30;99.90
34768;DHT22;21755;43.608;1.236;2023-02-18T15:08:48;17.30;99.90
34768;DHT22;21755;43.608;1.236;2023-02-18T15:11:15;17.20;99.90
34768;DHT22;21755;43.608;1.236;2023-02-18T15:13:43;17.30;99.90
34768;DHT22;21755;43.608;1.236;2023-02-18T15:16:26;17.20;99.90
34768;DHT22;21755;43.608;1.236;2023-02-18T15:18:58;17.20;99.90
34768;DHT22;21755;43.608;1.236;2023-02-18T15:21:45;17.20;99.90
34768;DHT22;21755;43.608;1.236;2023-02-18T15:24:32;17.10;99.90
34768;DHT22;21755;43.608;1.236;2023-02-18T15:27:01;17.10;99.90
34768;DHT22;21755;43.608;1.236;2023-02-18T15:29:32;17.10;99.90
34768;DHT22;21755;43.608;1.236;2023-02-18T15:31:58;17.10;99.90
34768;DHT22;21755;43.608;1.236;2023-02-18T15:36:55;17.20;99.90
34768;DHT22;21755;43.608;1.236;2023-02-18T15:39:23;17.10;99.90
34768;DHT22;21755;43.608;1.236;2023-02-18T15:41:58;17.10;99.90
34768;DHT22;21755;43.608;1.236;2023-02-18T15:44:30;17.10;99.90
34768;DHT22;21755;43.608;1.236;2023-02-18T15:47:05;17.10;99.90
34768;DHT22;21755;43.608;1.236;2023-02-18T15:49:33;17.10;99.90
34768;DHT22;21755;43.608;1.236;2023-02-18T15:52:02;17.00;99.90
34768;DHT22;21755;43.608;1.236;2023-02-18T15:54:28;17.00;99.90
34768;DHT22;21755;43.608;1.236;2023-02-18T15:56:59;17.10;99.90
34768;DHT22;21755;43.608;1.236;2023-02-18T15:59:27;17.00;99.90
34768;DHT22;21755;43.608;1.236;2023-02-18T16:02:21;17.00;99.90
34768;DHT22;21755;43.608;1.236;2023-02-18T16:04:53;16.90;99.90
34768;DHT22;21755;43.608;1.236;2023-02-18T16:12:45;16.80;99.90
34768;DHT22;21755;43.608;1.236;2023-02-18T16:15:21;16.80;99.90
34768;DHT22;21755;43.608;1.236;2023-02-18T16:17:47;16.90;99.90
34768;DHT22;21755;43.608;1.236;2023-02-18T16:22:53;16.80;99.90
34768;DHT22;21755;43.608;1.236;2023-02-18T16:25:34;16.80;99.90
34768;DHT22;21755;43.608;1.236;2023-02-18T16:30:30;16.80;99.90
34768;DHT22;21755;43.608;1.236;2023-02-18T16:32:57;16.70;99.90
34768;DHT22;21755;43.608;1.236;2023-02-18T16:35:27;16.60;99.90
34768;DHT22;21755;43.608;1.236;2023-02-18T16:37:54;16.60;99.90
34768;DHT22;21755;43.608;1.236;2023-02-18T16:42:58;16.50;99.90
34768;DHT22;21755;43.608;1.236;2023-02-18T16:45:44;16.50;99.90
34768;DHT22;21755;43.608;1.236;2023-02-18T16:48:33;16.40;99.90
34768;DHT22;21755;43.608;1.236;2023-02-18T16:51:08;16.40;99.90
34768;DHT22;21755;43.608;1.236;2023-02-18T16:53:35;16.40;99.90
34768;DHT22;21755;43.608;1.236;2023-02-18T16:56:01;16.20;99.90
34768;DHT22;21755;43.608;1.236;2023-02-18T16:58:27;16.20;99.90
34768;DHT22;21755;43.608;1.236;2023-02-18T17:00:53;16.10;99.90
34768;DHT22;21755;43.608;1.236;2023-02-18T17:03:20;16.00;99.90
34768;DHT22;21755;43.608;1.236;2023-02-18T17:05:46;15.80;99.90
34768;DHT22;21755;43.608;1.236;2023-02-18T17:08:20;15.70;99.90
34768;DHT22;21755;43.608;1.236;2023-02-18T17:10:55;15.60;99.90
34768;DHT22;21755;43.608;1.236;2023-02-18T17:13:27;15.40;99.90
34768;DHT22;21755;43.608;1.236;2023-02-18T17:15:55;15.40;99.90
34768;DHT22;21755;43.608;1.236;2023-02-18T17:18:22;15.30;99.90
34768;DHT22;21755;43.608;1.236;2023-02-18T17:20:50;15.20;99.90
34768;DHT22;21755;43.608;1.236;2023-02-18T17:23:19;15.10;99.90
34768;DHT22;21755;43.608;1.236;2023-02-18T17:25:49;15.10;99.90
34768;DHT22;21755;43.608;1.236;2023-02-18T17:28:16;14.90;99.90
34768;DHT22;21755;43.608;1.236;2023-02-18T17:30:46;14.90;99.90
34768;DHT22;21755;43.608;1.236;2023-02-18T17:33:15;14.70;99.90
34768;DHT22;21755;43.608;1.236;2023-02-18T17:35:42;14.70;99.90
34768;DHT22;21755;43.608;1.236;2023-02-18T17:38:12;14.60;99.90
34768;DHT22;21755;43.608;1.236;2023-02-18T17:40:38;14.50;99.90
34768;DHT22;21755;43.608;1.236;2023-02-18T17:43:05;14.40;99.90
34768;DHT22;21755;43.608;1.236;2023-02-18T17:45:36;14.40;99.90
34768;DHT22;21755;43.608;1.236;2023-02-18T17:48:04;14.40;99.90
34768;DHT22;21755;43.608;1.236;2023-02-18T17:50:31;14.30;99.90
34768;DHT22;21755;43.608;1.236;2023-02-18T17:52:57;14.20;99.90
34768;DHT22;21755;43.608;1.236;2023-02-18T17:55:30;14.10;99.90
34768;DHT22;21755;43.608;1.236;2023-02-18T17:57:56;13.90;99.90
34768;DHT22;21755;43.608;1.236;2023-02-18T18:00:34;13.80;99.90
34768;DHT22;21755;43.608;1.236;2023-02-18T18:03:01;13.70;99.90
34768;DHT22;21755;43.608;1.236;2023-02-18T18:05:32;13.50;99.90
34768;DHT22;21755;43.608;1.236;2023-02-18T18:07:59;13.30;99.90
34768;DHT22;21755;43.608;1.236;2023-02-18T18:10:27;13.20;99.90
34768;DHT22;21755;43.608;1.236;2023-02-18T18:12:57;13.10;99.90
34768;DHT22;21755;43.608;1.236;2023-02-18T18:15:29;13.00;99.90
34768;DHT22;21755;43.608;1.236;2023-02-18T18:17:56;12.90;99.90
34768;DHT22;21755;43.608;1.236;2023-02-18T18:20:24;12.80;99.90
34768;DHT22;21755;43.608;1.236;2023-02-18T18:22:52;12.70;99.90
34768;DHT22;21755;43.608;1.236;2023-02-18T18:25:38;12.60;99.90
34768;DHT22;21755;43.608;1.236;2023-02-18T18:28:05;12.50;99.90
34768;DHT22;21755;43.608;1.236;2023-02-18T18:30:34;12.40;99.90
34768;DHT22;21755;43.608;1.236;2023-02-18T18:33:02;12.30;99.90
34768;DHT22;21755;43.608;1.236;2023-02-18T18:35:30;12.20;99.90
34768;DHT22;21755;43.608;1.236;2023-02-18T18:37:57;12.10;99.90
34768;DHT22;21755;43.608;1.236;2023-02-18T18:40:25;12.00;99.90
34768;DHT22;21755;43.608;1.236;2023-02-18T18:42:56;12.00;99.90
34768;DHT22;21755;43.608;1.236;2023-02-18T18:45:25;11.90;99.90
34768;DHT22;21755;43.608;1.236;2023-02-18T18:47:52;11.90;99.90